sensor_id;sensor_type;location;lat;lon;timestamp;P1;durP1;ratioP1;P2;durP2;ratioP2
19800;SDS011;10060;48.274;12.214;2022-08-07T00:00:22;11.40;;;7.45;;
19800;SDS011;10060;48.274;12.214;2022-08-07T00:03:25;10.82;;;6.30;;
19800;SDS011;10060;48.274;12.214;2022-08-07T00:06:27;8.82;;;6.72;;
19800;SDS011;10060;48.274;12.214;2022-08-07T00:09:29;7.93;;;6.60;;
19800;SDS011;10060;48.274;12.214;2022-08-07T00:12:31;7.93;;;6.57;;
19800;SDS011;10060;48.274;12.214;2022-08-07T00:15:35;8.65;;;6.22;;
19800;SDS011;10060;48.274;12.214;2022-08-07T00:18:38;9.57;;;7.00;;
19800;SDS011;10060;48.274;12.214;2022-08-07T00:21:40;8.15;;;6.00;;
19800;SDS011;10060;48.274;12.214;2022-08-07T00:24:42;10.15;;;7.30;;
19800;SDS011;10060;48.274;12.214;2022-08-07T00:27:44;7.70;;;6.82;;
19800;SDS011;10060;48.274;12.214;2022-08-07T00:30:48;9.40;;;6.82;;
19800;SDS011;10060;48.274;12.214;2022-08-07T00:33:50;8.57;;;6.57;;
19800;SDS011;10060;48.274;12.214;2022-08-07T00:36:52;9.90;;;7.22;;
19800;SDS011;10060;48.274;12.214;2022-08-07T00:39:55;9.18;;;7.25;;
19800;SDS011;10060;48.274;12.214;2022-08-07T00:42:57;8.05;;;7.25;;
19800;SDS011;10060;48.274;12.214;2022-08-07T00:46:01;9.32;;;7.63;;
19800;SDS011;10060;48.274;12.214;2022-08-07T00:49:03;9.82;;;8.32;;
19800;SDS011;10060;48.274;12.214;2022-08-07T00:52:06;7.53;;;6.68;;
19800;SDS011;10060;48.274;12.214;2022-08-07T00:55:08;9.27;;;7.32;;
19800;SDS011;10060;48.274;12.214;2022-08-07T00:58:11;9.45;;;7.57;;
19800;SDS011;10060;48.274;12.214;2022-08-07T01:01:15;10.63;;;7.05;;
19800;SDS011;10060;48.274;12.214;2022-08-07T01:04:17;8.18;;;7.03;;
19800;SDS011;10060;48.274;12.214;2022-08-07T01:07:20;8.75;;;7.40;;
19800;SDS011;10060;48.274;12.214;2022-08-07T01:10:22;9.00;;;7.28;;
19800;SDS011;10060;48.274;12.214;2022-08-07T01:13:24;8.63;;;7.53;;
19800;SDS011;10060;48.274;12.214;2022-08-07T01:16:28;9.57;;;7.53;;
19800;SDS011;10060;48.274;12.214;2022-08-07T01:19:31;9.80;;;7.03;;
19800;SDS011;10060;48.274;12.214;2022-08-07T01:22:35;7.65;;;6.85;;
19800;SDS011;10060;48.274;12.214;2022-08-07T01:25:37;7.47;;;6.75;;
19800;SDS011;10060;48.274;12.214;2022-08-07T01:28:40;7.95;;;7.05;;
19800;SDS011;10060;48.274;12.214;2022-08-07T01:31:43;7.75;;;6.68;;
19800;SDS011;10060;48.274;12.214;2022-08-07T01:34:45;8.43;;;6.40;;
19800;SDS011;10060;48.274;12.214;2022-08-07T01:37:48;8.98;;;6.57;;
19800;SDS011;10060;48.274;12.214;2022-08-07T01:40:51;10.45;;;6.63;;
19800;SDS011;10060;48.274;12.214;2022-08-07T01:43:54;8.30;;;6.35;;
19800;SDS011;10060;48.274;12.214;2022-08-07T01:46:57;8.77;;;6.55;;
19800;SDS011;10060;48.274;12.214;2022-08-07T01:49:59;8.30;;;6.15;;
19800;SDS011;10060;48.274;12.214;2022-08-07T01:53:02;10.40;;;7.03;;
19800;SDS011;10060;48.274;12.214;2022-08-07T01:56:08;8.40;;;6.10;;
19800;SDS011;10060;48.274;12.214;2022-08-07T01:59:13;8.48;;;6.32;;
19800;SDS011;10060;48.274;12.214;2022-08-07T02:02:16;7.25;;;6.55;;
19800;SDS011;10060;48.274;12.214;2022-08-07T02:05:22;9.18;;;6.82;;
19800;SDS011;10060;48.274;12.214;2022-08-07T02:08:26;11.77;;;6.93;;
19800;SDS011;10060;48.274;12.214;2022-08-07T02:11:28;9.10;;;6.85;;
19800;SDS011;10060;48.274;12.214;2022-08-07T02:14:31;8.32;;;7.03;;
19800;SDS011;10060;48.274;12.214;2022-08-07T02:17:36;9.30;;;6.88;;
19800;SDS011;10060;48.274;12.214;2022-08-07T02:20:39;8.73;;;7.82;;
19800;SDS011;10060;48.274;12.214;2022-08-07T02:23:43;10.18;;;8.23;;
19800;SDS011;10060;48.274;12.214;2022-08-07T02:26:45;10.55;;;7.70;;
19800;SDS011;10060;48.274;12.214;2022-08-07T02:29:48;9.57;;;7.70;;
19800;SDS011;10060;48.274;12.214;2022-08-07T02:32:51;10.82;;;8.70;;
19800;SDS011;10060;48.274;12.214;2022-08-07T02:35:53;9.80;;;8.00;;
19800;SDS011;10060;48.274;12.214;2022-08-07T02:38:58;9.55;;;8.38;;
19800;SDS011;10060;48.274;12.214;2022-08-07T02:42:01;9.18;;;7.97;;
19800;SDS011;10060;48.274;12.214;2022-08-07T02:45:04;9.57;;;8.63;;
19800;SDS011;10060;48.274;12.214;2022-08-07T02:48:07;11.82;;;8.77;;
19800;SDS011;10060;48.274;12.214;2022-08-07T02:51:11;10.43;;;9.07;;
19800;SDS011;10060;48.274;12.214;2022-08-07T02:54:15;9.50;;;8.20;;
19800;SDS011;10060;48.274;12.214;2022-08-07T02:57:18;10.38;;;9.23;;
19800;SDS011;10060;48.274;12.214;2022-08-07T03:00:21;10.68;;;9.02;;
19800;SDS011;10060;48.274;12.214;2022-08-07T03:03:26;11.88;;;9.43;;
19800;SDS011;10060;48.274;12.214;2022-08-07T03:06:29;14.55;;;8.52;;
19800;SDS011;10060;48.274;12.214;2022-08-07T03:09:33;10.15;;;8.63;;
19800;SDS011;10060;48.274;12.214;2022-08-07T03:12:35;10.45;;;8.95;;
19800;SDS011;10060;48.274;12.214;2022-08-07T03:15:38;11.30;;;8.88;;
19800;SDS011;10060;48.274;12.214;2022-08-07T03:18:40;10.45;;;8.35;;
19800;SDS011;10060;48.274;12.214;2022-08-07T03:21:43;10.95;;;7.72;;
19800;SDS011;10060;48.274;12.214;2022-08-07T03:24:47;9.07;;;6.97;;
19800;SDS011;10060;48.274;12.214;2022-08-07T03:27:49;8.02;;;6.82;;
19800;SDS011;10060;48.274;12.214;2022-08-07T03:30:52;8.27;;;6.90;;
19800;SDS011;10060;48.274;12.214;2022-08-07T03:34:15;12.40;;;6.30;;
19800;SDS011;10060;48.274;12.214;2022-08-07T03:37:19;11.55;;;6.45;;
19800;SDS011;10060;48.274;12.214;2022-08-07T03:40:23;7.60;;;5.78;;
19800;SDS011;10060;48.274;12.214;2022-08-07T03:43:26;6.88;;;5.50;;
19800;SDS011;10060;48.274;12.214;2022-08-07T03:46:28;5.47;;;4.93;;
19800;SDS011;10060;48.274;12.214;2022-08-07T03:49:31;6.95;;;4.63;;
19800;SDS011;10060;48.274;12.214;2022-08-07T03:52:34;6.40;;;4.72;;
19800;SDS011;10060;48.274;12.214;2022-08-07T03:55:38;5.63;;;4.38;;
19800;SDS011;10060;48.274;12.214;2022-08-07T03:58:41;5.63;;;4.20;;
19800;SDS011;10060;48.274;12.214;2022-08-07T04:01:44;5.93;;;3.83;;
19800;SDS011;10060;48.274;12.214;2022-08-07T04:04:47;4.10;;;3.75;;
19800;SDS011;10060;48.274;12.214;2022-08-07T04:07:49;4.22;;;3.47;;
19800;SDS011;10060;48.274;12.214;2022-08-07T04:10:53;4.68;;;3.08;;
19800;SDS011;10060;48.274;12.214;2022-08-07T04:13:55;4.78;;;3.53;;
19800;SDS011;10060;48.274;12.214;2022-08-07T04:16:57;4.15;;;3.75;;
19800;SDS011;10060;48.274;12.214;2022-08-07T04:20:00;4.90;;;3.47;;
19800;SDS011;10060;48.274;12.214;2022-08-07T04:23:02;3.40;;;3.10;;
19800;SDS011;10060;48.274;12.214;2022-08-07T04:26:06;4.70;;;3.30;;
19800;SDS011;10060;48.274;12.214;2022-08-07T04:29:08;4.72;;;3.70;;
19800;SDS011;10060;48.274;12.214;2022-08-07T04:32:10;3.92;;;3.35;;
19800;SDS011;10060;48.274;12.214;2022-08-07T04:35:13;5.53;;;2.97;;
19800;SDS011;10060;48.274;12.214;2022-08-07T04:38:15;3.47;;;3.10;;
19800;SDS011;10060;48.274;12.214;2022-08-07T04:41:19;3.78;;;3.30;;
19800;SDS011;10060;48.274;12.214;2022-08-07T04:44:21;3.80;;;3.33;;
19800;SDS011;10060;48.274;12.214;2022-08-07T04:47:26;5.22;;;3.40;;
19800;SDS011;10060;48.274;12.214;2022-08-07T04:50:32;4.35;;;3.08;;
19800;SDS011;10060;48.274;12.214;2022-08-07T04:53:38;4.45;;;2.88;;
19800;SDS011;10060;48.274;12.214;2022-08-07T04:56:43;6.78;;;3.30;;
19800;SDS011;10060;48.274;12.214;2022-08-07T04:59:48;4.95;;;3.30;;
19800;SDS011;10060;48.274;12.214;2022-08-07T05:02:53;3.55;;;3.25;;
19800;SDS011;10060;48.274;12.214;2022-08-07T05:05:59;3.85;;;2.78;;
19800;SDS011;10060;48.274;12.214;2022-08-07T05:09:03;3.45;;;3.10;;
19800;SDS011;10060;48.274;12.214;2022-08-07T05:12:10;3.75;;;2.90;;
19800;SDS011;10060;48.274;12.214;2022-08-07T05:15:18;3.90;;;3.25;;
19800;SDS011;10060;48.274;12.214;2022-08-07T05:18:21;4.32;;;3.08;;
19800;SDS011;10060;48.274;12.214;2022-08-07T05:21:26;3.53;;;3.10;;
19800;SDS011;10060;48.274;12.214;2022-08-07T05:24:30;3.83;;;3.03;;
19800;SDS011;10060;48.274;12.214;2022-08-07T05:27:34;3.13;;;2.83;;
19800;SDS011;10060;48.274;12.214;2022-08-07T05:30:36;3.28;;;2.88;;
19800;SDS011;10060;48.274;12.214;2022-08-07T05:33:39;3.08;;;2.85;;
19800;SDS011;10060;48.274;12.214;2022-08-07T05:36:42;3.38;;;2.80;;
19800;SDS011;10060;48.274;12.214;2022-08-07T05:39:45;5.35;;;3.28;;
19800;SDS011;10060;48.274;12.214;2022-08-07T05:42:48;3.42;;;3.13;;
19800;SDS011;10060;48.274;12.214;2022-08-07T05:45:51;6.15;;;3.40;;
19800;SDS011;10060;48.274;12.214;2022-08-07T05:48:53;6.47;;;3.50;;
19800;SDS011;10060;48.274;12.214;2022-08-07T05:51:56;3.40;;;3.10;;
19800;SDS011;10060;48.274;12.214;2022-08-07T05:54:58;4.65;;;3.30;;
19800;SDS011;10060;48.274;12.214;2022-08-07T05:58:02;6.35;;;3.13;;
19800;SDS011;10060;48.274;12.214;2022-08-07T06:01:05;3.75;;;3.13;;
19800;SDS011;10060;48.274;12.214;2022-08-07T06:04:07;3.40;;;3.08;;
19800;SDS011;10060;48.274;12.214;2022-08-07T06:07:09;3.58;;;3.25;;
19800;SDS011;10060;48.274;12.214;2022-08-07T06:10:12;7.07;;;3.60;;
19800;SDS011;10060;48.274;12.214;2022-08-07T06:13:15;4.20;;;3.17;;
19800;SDS011;10060;48.274;12.214;2022-08-07T06:16:18;3.15;;;2.85;;
19800;SDS011;10060;48.274;12.214;2022-08-07T06:19:21;3.20;;;2.90;;
19800;SDS011;10060;48.274;12.214;2022-08-07T06:22:23;4.00;;;3.22;;
19800;SDS011;10060;48.274;12.214;2022-08-07T06:25:26;3.28;;;2.97;;
19800;SDS011;10060;48.274;12.214;2022-08-07T06:28:29;7.40;;;3.40;;
19800;SDS011;10060;48.274;12.214;2022-08-07T06:31:31;3.38;;;3.08;;
19800;SDS011;10060;48.274;12.214;2022-08-07T06:34:34;7.03;;;3.22;;
19800;SDS011;10060;48.274;12.214;2022-08-07T06:37:36;3.20;;;2.90;;
19800;SDS011;10060;48.274;12.214;2022-08-07T06:40:39;3.75;;;3.45;;
19800;SDS011;10060;48.274;12.214;2022-08-07T06:43:44;3.92;;;3.10;;
19800;SDS011;10060;48.274;12.214;2022-08-07T06:46:47;5.22;;;3.17;;
19800;SDS011;10060;48.274;12.214;2022-08-07T06:49:49;3.58;;;3.28;;
19800;SDS011;10060;48.274;12.214;2022-08-07T06:52:52;3.70;;;3.28;;
19800;SDS011;10060;48.274;12.214;2022-08-07T06:55:55;3.88;;;3.10;;
19800;SDS011;10060;48.274;12.214;2022-08-07T06:58:59;3.47;;;3.17;;
19800;SDS011;10060;48.274;12.214;2022-08-07T07:02:01;4.00;;;3.60;;
19800;SDS011;10060;48.274;12.214;2022-08-07T07:05:03;6.78;;;3.33;;
19800;SDS011;10060;48.274;12.214;2022-08-07T07:08:06;3.85;;;3.15;;
19800;SDS011;10060;48.274;12.214;2022-08-07T07:11:11;4.22;;;3.53;;
19800;SDS011;10060;48.274;12.214;2022-08-07T07:14:15;3.50;;;3.20;;
19800;SDS011;10060;48.274;12.214;2022-08-07T07:17:19;5.18;;;3.30;;
19800;SDS011;10060;48.274;12.214;2022-08-07T07:20:24;5.80;;;3.35;;
19800;SDS011;10060;48.274;12.214;2022-08-07T07:23:27;4.80;;;3.33;;
19800;SDS011;10060;48.274;12.214;2022-08-07T07:26:32;4.60;;;3.47;;
19800;SDS011;10060;48.274;12.214;2022-08-07T07:29:37;4.07;;;3.67;;
19800;SDS011;10060;48.274;12.214;2022-08-07T07:32:40;3.78;;;3.45;;
19800;SDS011;10060;48.274;12.214;2022-08-07T07:35:45;3.40;;;3.10;;
19800;SDS011;10060;48.274;12.214;2022-08-07T07:38:48;3.30;;;2.80;;
19800;SDS011;10060;48.274;12.214;2022-08-07T07:41:51;3.10;;;2.30;;
19800;SDS011;10060;48.274;12.214;2022-08-07T07:44:54;2.85;;;2.55;;
19800;SDS011;10060;48.274;12.214;2022-08-07T07:47:58;4.03;;;2.60;;
19800;SDS011;10060;48.274;12.214;2022-08-07T07:51:03;2.67;;;2.45;;
19800;SDS011;10060;48.274;12.214;2022-08-07T07:54:05;2.85;;;2.58;;
19800;SDS011;10060;48.274;12.214;2022-08-07T07:57:08;4.28;;;2.42;;
19800;SDS011;10060;48.274;12.214;2022-08-07T08:00:13;4.63;;;2.30;;
19800;SDS011;10060;48.274;12.214;2022-08-07T08:03:15;3.63;;;2.55;;
19800;SDS011;10060;48.274;12.214;2022-08-07T08:06:20;4.32;;;2.15;;
19800;SDS011;10060;48.274;12.214;2022-08-07T08:09:23;2.97;;;2.50;;
19800;SDS011;10060;48.274;12.214;2022-08-07T08:12:26;3.42;;;2.28;;
19800;SDS011;10060;48.274;12.214;2022-08-07T08:15:30;2.72;;;1.92;;
19800;SDS011;10060;48.274;12.214;2022-08-07T08:18:34;4.03;;;2.05;;
19800;SDS011;10060;48.274;12.214;2022-08-07T08:21:38;3.08;;;1.58;;
19800;SDS011;10060;48.274;12.214;2022-08-07T08:24:58;3.22;;;1.60;;
19800;SDS011;10060;48.274;12.214;2022-08-07T08:28:21;5.38;;;1.90;;
19800;SDS011;10060;48.274;12.214;2022-08-07T08:31:27;4.72;;;2.17;;
19800;SDS011;10060;48.274;12.214;2022-08-07T08:34:32;2.00;;;1.70;;
19800;SDS011;10060;48.274;12.214;2022-08-07T08:37:36;3.45;;;1.95;;
19800;SDS011;10060;48.274;12.214;2022-08-07T08:40:40;3.53;;;2.00;;
19800;SDS011;10060;48.274;12.214;2022-08-07T08:43:46;2.63;;;1.65;;
19800;SDS011;10060;48.274;12.214;2022-08-07T08:46:53;3.92;;;1.80;;
19800;SDS011;10060;48.274;12.214;2022-08-07T08:49:58;2.55;;;1.98;;
19800;SDS011;10060;48.274;12.214;2022-08-07T08:53:04;5.80;;;2.30;;
19800;SDS011;10060;48.274;12.214;2022-08-07T08:56:07;3.15;;;2.30;;
19800;SDS011;10060;48.274;12.214;2022-08-07T08:59:12;2.55;;;2.20;;
19800;SDS011;10060;48.274;12.214;2022-08-07T09:02:18;5.40;;;2.13;;
19800;SDS011;10060;48.274;12.214;2022-08-07T09:05:32;3.75;;;2.30;;
19800;SDS011;10060;48.274;12.214;2022-08-07T09:08:37;3.00;;;2.20;;
19800;SDS011;10060;48.274;12.214;2022-08-07T09:11:42;2.58;;;2.38;;
19800;SDS011;10060;48.274;12.214;2022-08-07T09:14:48;2.90;;;2.33;;
19800;SDS011;10060;48.274;12.214;2022-08-07T09:17:59;3.75;;;2.20;;
19800;SDS011;10060;48.274;12.214;2022-08-07T09:21:05;2.35;;;2.08;;
19800;SDS011;10060;48.274;12.214;2022-08-07T09:24:15;4.70;;;2.20;;
19800;SDS011;10060;48.274;12.214;2022-08-07T09:27:23;2.97;;;2.08;;
19800;SDS011;10060;48.274;12.214;2022-08-07T09:30:33;4.07;;;2.10;;
19800;SDS011;10060;48.274;12.214;2022-08-07T09:33:43;2.50;;;1.85;;
19800;SDS011;10060;48.274;12.214;2022-08-07T09:36:51;3.22;;;2.08;;
19800;SDS011;10060;48.274;12.214;2022-08-07T09:39:58;2.35;;;2.15;;
19800;SDS011;10060;48.274;12.214;2022-08-07T09:43:06;3.13;;;2.25;;
19800;SDS011;10060;48.274;12.214;2022-08-07T09:46:16;2.75;;;2.28;;
19800;SDS011;10060;48.274;12.214;2022-08-07T09:49:28;4.20;;;2.55;;
19800;SDS011;10060;48.274;12.214;2022-08-07T09:52:36;2.78;;;2.17;;
19800;SDS011;10060;48.274;12.214;2022-08-07T09:55:45;2.65;;;2.25;;
19800;SDS011;10060;48.274;12.214;2022-08-07T09:58:56;2.35;;;2.15;;
19800;SDS011;10060;48.274;12.214;2022-08-07T10:02:06;5.03;;;2.72;;
19800;SDS011;10060;48.274;12.214;2022-08-07T10:05:21;4.07;;;2.03;;
19800;SDS011;10060;48.274;12.214;2022-08-07T10:11:49;3.13;;;2.28;;
19800;SDS011;10060;48.274;12.214;2022-08-07T10:15:16;4.35;;;1.90;;
19800;SDS011;10060;48.274;12.214;2022-08-07T10:18:23;3.15;;;1.90;;
19800;SDS011;10060;48.274;12.214;2022-08-07T10:21:36;3.33;;;1.83;;
19800;SDS011;10060;48.274;12.214;2022-08-07T10:24:48;2.47;;;1.80;;
19800;SDS011;10060;48.274;12.214;2022-08-07T10:27:53;6.43;;;2.10;;
19800;SDS011;10060;48.274;12.214;2022-08-07T10:31:02;1.58;;;1.48;;
19800;SDS011;10060;48.274;12.214;2022-08-07T10:34:14;4.97;;;1.73;;
19800;SDS011;10060;48.274;12.214;2022-08-07T10:37:21;2.92;;;1.80;;
19800;SDS011;10060;48.274;12.214;2022-08-07T10:40:29;1.88;;;1.70;;
19800;SDS011;10060;48.274;12.214;2022-08-07T10:43:36;2.42;;;1.60;;
19800;SDS011;10060;48.274;12.214;2022-08-07T10:46:45;1.92;;;1.70;;
19800;SDS011;10060;48.274;12.214;2022-08-07T10:49:53;2.67;;;1.80;;
19800;SDS011;10060;48.274;12.214;2022-08-07T10:53:00;2.67;;;1.60;;
19800;SDS011;10060;48.274;12.214;2022-08-07T10:56:06;1.85;;;1.75;;
19800;SDS011;10060;48.274;12.214;2022-08-07T10:59:11;2.38;;;1.27;;
19800;SDS011;10060;48.274;12.214;2022-08-07T11:02:17;3.33;;;1.60;;
19800;SDS011;10060;48.274;12.214;2022-08-07T11:05:27;3.08;;;1.50;;
19800;SDS011;10060;48.274;12.214;2022-08-07T11:08:34;7.95;;;1.50;;
19800;SDS011;10060;48.274;12.214;2022-08-07T11:11:38;2.65;;;1.30;;
19800;SDS011;10060;48.274;12.214;2022-08-07T11:14:45;2.58;;;1.80;;
19800;SDS011;10060;48.274;12.214;2022-08-07T11:17:48;1.58;;;1.40;;
19800;SDS011;10060;48.274;12.214;2022-08-07T11:20:51;1.40;;;1.30;;
19800;SDS011;10060;48.274;12.214;2022-08-07T11:23:58;4.00;;;1.45;;
19800;SDS011;10060;48.274;12.214;2022-08-07T11:27:06;2.53;;;1.65;;
19800;SDS011;10060;48.274;12.214;2022-08-07T11:30:12;5.13;;;1.30;;
19800;SDS011;10060;48.274;12.214;2022-08-07T11:33:17;1.45;;;1.20;;
19800;SDS011;10060;48.274;12.214;2022-08-07T11:36:35;1.90;;;1.63;;
19800;SDS011;10060;48.274;12.214;2022-08-07T11:39:53;2.38;;;1.70;;
19800;SDS011;10060;48.274;12.214;2022-08-07T11:42:58;2.15;;;1.40;;
19800;SDS011;10060;48.274;12.214;2022-08-07T11:46:04;2.58;;;1.40;;
19800;SDS011;10060;48.274;12.214;2022-08-07T11:52:35;2.63;;;1.40;;
19800;SDS011;10060;48.274;12.214;2022-08-07T11:55:44;4.50;;;1.80;;
19800;SDS011;10060;48.274;12.214;2022-08-07T11:58:48;4.35;;;1.45;;
19800;SDS011;10060;48.274;12.214;2022-08-07T12:01:55;2.63;;;1.65;;
19800;SDS011;10060;48.274;12.214;2022-08-07T12:05:06;1.42;;;1.30;;
19800;SDS011;10060;48.274;12.214;2022-08-07T12:08:10;2.42;;;1.40;;
19800;SDS011;10060;48.274;12.214;2022-08-07T12:11:14;2.05;;;1.77;;
19800;SDS011;10060;48.274;12.214;2022-08-07T12:14:19;1.90;;;1.80;;
19800;SDS011;10060;48.274;12.214;2022-08-07T12:17:23;2.70;;;1.80;;
19800;SDS011;10060;48.274;12.214;2022-08-07T12:20:32;1.90;;;1.70;;
19800;SDS011;10060;48.274;12.214;2022-08-07T12:23:38;2.33;;;1.60;;
19800;SDS011;10060;48.274;12.214;2022-08-07T12:26:43;2.50;;;1.80;;
19800;SDS011;10060;48.274;12.214;2022-08-07T12:29:48;3.22;;;2.15;;
19800;SDS011;10060;48.274;12.214;2022-08-07T12:32:53;5.25;;;2.13;;
19800;SDS011;10060;48.274;12.214;2022-08-07T12:35:59;1.80;;;1.70;;
19800;SDS011;10060;48.274;12.214;2022-08-07T12:39:02;2.85;;;1.70;;
19800;SDS011;10060;48.274;12.214;2022-08-07T12:42:06;2.63;;;2.25;;
19800;SDS011;10060;48.274;12.214;2022-08-07T12:45:11;2.45;;;1.90;;
19800;SDS011;10060;48.274;12.214;2022-08-07T12:48:15;3.42;;;1.73;;
19800;SDS011;10060;48.274;12.214;2022-08-07T12:51:19;2.30;;;2.10;;
19800;SDS011;10060;48.274;12.214;2022-08-07T12:54:24;4.57;;;2.72;;
19800;SDS011;10060;48.274;12.214;2022-08-07T12:57:29;4.57;;;2.33;;
19800;SDS011;10060;48.274;12.214;2022-08-07T13:00:34;2.55;;;2.30;;
19800;SDS011;10060;48.274;12.214;2022-08-07T13:03:48;2.60;;;2.13;;
19800;SDS011;10060;48.274;12.214;2022-08-07T13:07:06;3.60;;;2.20;;
19800;SDS011;10060;48.274;12.214;2022-08-07T13:10:13;2.50;;;2.28;;
19800;SDS011;10060;48.274;12.214;2022-08-07T13:13:26;2.92;;;2.35;;
19800;SDS011;10060;48.274;12.214;2022-08-07T13:16:30;3.38;;;2.30;;
19800;SDS011;10060;48.274;12.214;2022-08-07T13:19:38;3.08;;;2.63;;
19800;SDS011;10060;48.274;12.214;2022-08-07T13:22:44;3.40;;;2.33;;
19800;SDS011;10060;48.274;12.214;2022-08-07T13:25:49;2.50;;;2.30;;
19800;SDS011;10060;48.274;12.214;2022-08-07T13:29:00;2.92;;;2.25;;
19800;SDS011;10060;48.274;12.214;2022-08-07T13:32:07;3.17;;;2.22;;
19800;SDS011;10060;48.274;12.214;2022-08-07T13:35:12;3.30;;;2.95;;
19800;SDS011;10060;48.274;12.214;2022-08-07T13:38:18;4.07;;;2.90;;
19800;SDS011;10060;48.274;12.214;2022-08-07T13:41:24;2.92;;;2.60;;
19800;SDS011;10060;48.274;12.214;2022-08-07T13:44:31;2.67;;;2.47;;
19800;SDS011;10060;48.274;12.214;2022-08-07T13:47:34;3.30;;;2.90;;
19800;SDS011;10060;48.274;12.214;2022-08-07T13:50:39;3.67;;;2.88;;
19800;SDS011;10060;48.274;12.214;2022-08-07T13:53:41;3.83;;;2.92;;
19800;SDS011;10060;48.274;12.214;2022-08-07T13:56:47;3.72;;;2.20;;
19800;SDS011;10060;48.274;12.214;2022-08-07T13:59:50;4.00;;;2.75;;
19800;SDS011;10060;48.274;12.214;2022-08-07T14:02:54;3.50;;;3.20;;
19800;SDS011;10060;48.274;12.214;2022-08-07T14:05:57;3.03;;;2.70;;
19800;SDS011;10060;48.274;12.214;2022-08-07T14:09:01;3.40;;;3.10;;
19800;SDS011;10060;48.274;12.214;2022-08-07T14:12:04;3.00;;;2.53;;
19800;SDS011;10060;48.274;12.214;2022-08-07T14:15:18;4.30;;;3.10;;
19800;SDS011;10060;48.274;12.214;2022-08-07T14:18:21;11.15;;;3.22;;
19800;SDS011;10060;48.274;12.214;2022-08-07T14:21:26;2.88;;;2.60;;
19800;SDS011;10060;48.274;12.214;2022-08-07T14:24:31;4.13;;;2.90;;
19800;SDS011;10060;48.274;12.214;2022-08-07T14:27:35;4.93;;;3.10;;
19800;SDS011;10060;48.274;12.214;2022-08-07T14:30:42;3.55;;;2.60;;
19800;SDS011;10060;48.274;12.214;2022-08-07T14:33:46;2.75;;;2.50;;
19800;SDS011;10060;48.274;12.214;2022-08-07T14:36:49;4.07;;;2.75;;
19800;SDS011;10060;48.274;12.214;2022-08-07T14:39:52;3.25;;;2.90;;
19800;SDS011;10060;48.274;12.214;2022-08-07T14:42:55;3.25;;;2.65;;
19800;SDS011;10060;48.274;12.214;2022-08-07T14:46:00;3.13;;;2.22;;
19800;SDS011;10060;48.274;12.214;2022-08-07T14:49:03;3.80;;;2.22;;
19800;SDS011;10060;48.274;12.214;2022-08-07T14:52:06;4.13;;;2.47;;
19800;SDS011;10060;48.274;12.214;2022-08-07T14:55:09;2.50;;;2.30;;
19800;SDS011;10060;48.274;12.214;2022-08-07T14:58:13;3.22;;;2.60;;
19800;SDS011;10060;48.274;12.214;2022-08-07T15:01:17;3.08;;;2.78;;
19800;SDS011;10060;48.274;12.214;2022-08-07T15:04:20;3.65;;;2.38;;
19800;SDS011;10060;48.274;12.214;2022-08-07T15:07:22;3.33;;;2.33;;
19800;SDS011;10060;48.274;12.214;2022-08-07T15:10:25;3.45;;;2.30;;
19800;SDS011;10060;48.274;12.214;2022-08-07T15:13:28;3.45;;;2.58;;
19800;SDS011;10060;48.274;12.214;2022-08-07T15:16:36;3.50;;;3.03;;
19800;SDS011;10060;48.274;12.214;2022-08-07T15:19:39;3.40;;;2.60;;
19800;SDS011;10060;48.274;12.214;2022-08-07T15:22:49;2.63;;;2.38;;
19800;SDS011;10060;48.274;12.214;2022-08-07T15:25:52;2.78;;;2.42;;
19800;SDS011;10060;48.274;12.214;2022-08-07T15:28:56;4.57;;;2.45;;
19800;SDS011;10060;48.274;12.214;2022-08-07T15:32:01;3.72;;;2.70;;
19800;SDS011;10060;48.274;12.214;2022-08-07T15:35:04;6.35;;;3.78;;
19800;SDS011;10060;48.274;12.214;2022-08-07T15:38:07;4.47;;;3.15;;
19800;SDS011;10060;48.274;12.214;2022-08-07T15:41:10;2.55;;;2.28;;
19800;SDS011;10060;48.274;12.214;2022-08-07T15:44:17;3.13;;;2.83;;
19800;SDS011;10060;48.274;12.214;2022-08-07T15:47:21;3.53;;;2.72;;
19800;SDS011;10060;48.274;12.214;2022-08-07T15:50:26;3.00;;;2.70;;
19800;SDS011;10060;48.274;12.214;2022-08-07T15:53:32;4.43;;;3.03;;
19800;SDS011;10060;48.274;12.214;2022-08-07T15:56:35;3.28;;;2.78;;
19800;SDS011;10060;48.274;12.214;2022-08-07T15:59:38;2.75;;;2.20;;
19800;SDS011;10060;48.274;12.214;2022-08-07T16:02:43;5.80;;;2.30;;
19800;SDS011;10060;48.274;12.214;2022-08-07T16:05:46;2.83;;;2.47;;
19800;SDS011;10060;48.274;12.214;2022-08-07T16:08:49;4.07;;;2.30;;
19800;SDS011;10060;48.274;12.214;2022-08-07T16:11:56;2.35;;;2.05;;
19800;SDS011;10060;48.274;12.214;2022-08-07T16:15:05;2.85;;;2.63;;
19800;SDS011;10060;48.274;12.214;2022-08-07T16:18:12;4.15;;;2.60;;
19800;SDS011;10060;48.274;12.214;2022-08-07T16:21:18;2.63;;;2.42;;
19800;SDS011;10060;48.274;12.214;2022-08-07T16:24:23;5.15;;;2.70;;
19800;SDS011;10060;48.274;12.214;2022-08-07T16:27:28;2.75;;;2.47;;
19800;SDS011;10060;48.274;12.214;2022-08-07T16:30:32;2.72;;;2.28;;
19800;SDS011;10060;48.274;12.214;2022-08-07T16:33:37;3.13;;;2.72;;
19800;SDS011;10060;48.274;12.214;2022-08-07T16:36:44;3.28;;;2.67;;
19800;SDS011;10060;48.274;12.214;2022-08-07T16:46:44;2.50;;;2.30;;
19800;SDS011;10060;48.274;12.214;2022-08-07T16:50:02;6.15;;;2.50;;
19800;SDS011;10060;48.274;12.214;2022-08-07T16:53:26;2.88;;;2.65;;
19800;SDS011;10060;48.274;12.214;2022-08-07T16:56:31;2.47;;;1.92;;
19800;SDS011;10060;48.274;12.214;2022-08-07T16:59:38;2.60;;;2.40;;
19800;SDS011;10060;48.274;12.214;2022-08-07T17:02:49;3.10;;;2.53;;
19800;SDS011;10060;48.274;12.214;2022-08-07T17:06:02;2.58;;;2.25;;
19800;SDS011;10060;48.274;12.214;2022-08-07T17:09:12;2.30;;;2.10;;
19800;SDS011;10060;48.274;12.214;2022-08-07T17:12:17;2.25;;;2.05;;
19800;SDS011;10060;48.274;12.214;2022-08-07T17:15:24;3.38;;;2.50;;
19800;SDS011;10060;48.274;12.214;2022-08-07T17:18:29;4.88;;;2.50;;
19800;SDS011;10060;48.274;12.214;2022-08-07T17:21:44;2.92;;;2.63;;
19800;SDS011;10060;48.274;12.214;2022-08-07T17:24:52;2.35;;;2.15;;
19800;SDS011;10060;48.274;12.214;2022-08-07T17:27:56;3.88;;;2.30;;
19800;SDS011;10060;48.274;12.214;2022-08-07T17:31:00;4.82;;;2.40;;
19800;SDS011;10060;48.274;12.214;2022-08-07T17:34:10;2.72;;;2.35;;
19800;SDS011;10060;48.274;12.214;2022-08-07T17:37:15;2.55;;;2.30;;
19800;SDS011;10060;48.274;12.214;2022-08-07T17:40:20;2.78;;;2.42;;
19800;SDS011;10060;48.274;12.214;2022-08-07T17:43:26;3.42;;;2.40;;
19800;SDS011;10060;48.274;12.214;2022-08-07T17:46:32;2.50;;;2.30;;
19800;SDS011;10060;48.274;12.214;2022-08-07T17:49:39;3.00;;;2.25;;
19800;SDS011;10060;48.274;12.214;2022-08-07T17:52:45;3.28;;;2.92;;
19800;SDS011;10060;48.274;12.214;2022-08-07T17:55:48;3.50;;;2.72;;
19800;SDS011;10060;48.274;12.214;2022-08-07T17:58:56;2.42;;;2.22;;
19800;SDS011;10060;48.274;12.214;2022-08-07T18:02:00;3.92;;;2.45;;
19800;SDS011;10060;48.274;12.214;2022-08-07T18:05:08;3.50;;;3.20;;
19800;SDS011;10060;48.274;12.214;2022-08-07T18:08:14;2.35;;;1.90;;
19800;SDS011;10060;48.274;12.214;2022-08-07T18:11:20;7.43;;;2.47;;
19800;SDS011;10060;48.274;12.214;2022-08-07T18:14:26;2.60;;;2.17;;
19800;SDS011;10060;48.274;12.214;2022-08-07T18:17:34;3.20;;;2.50;;
19800;SDS011;10060;48.274;12.214;2022-08-07T18:20:37;2.70;;;2.20;;
19800;SDS011;10060;48.274;12.214;2022-08-07T18:23:48;2.58;;;2.28;;
19800;SDS011;10060;48.274;12.214;2022-08-07T18:30:12;5.65;;;2.50;;
19800;SDS011;10060;48.274;12.214;2022-08-07T18:33:27;2.45;;;2.03;;